createdAt,value
2022-08-26T07:10:26.183Z,28.07
2022-08-26T07:11:24.053Z,28.67
2022-08-26T07:12:25.586Z,29.16
2022-08-26T07:13:31.093Z,29.58
2022-08-26T07:14:24.549Z,29.89
2022-08-26T07:15:31.088Z,30.30
2022-08-26T07:16:25.094Z,30.64
2022-08-26T07:17:25.918Z,30.87
2022-08-26T07:18:26.228Z,31.19
2022-08-26T07:19:30.167Z,31.45
2022-08-26T07:20:24.270Z,31.64
2022-08-26T07:21:24.297Z,31.80
2022-08-26T07:22:24.405Z,31.97
2022-08-26T07:23:26.152Z,32.21
2022-08-26T07:24:28.516Z,32.36
2022-08-26T07:25:27.251Z,32.42
2022-08-26T07:26:26.174Z,32.61
2022-08-26T07:27:30.837Z,32.70
2022-08-26T07:28:24.460Z,32.87
2022-08-26T07:29:24.483Z,32.90
2022-08-26T07:30:27.946Z,33.03
2022-08-26T07:31:36.089Z,33.10
2022-08-26T07:32:30.152Z,33.11
2022-08-26T07:33:25.538Z,33.27
2022-08-26T07:34:24.585Z,33.31
2022-08-26T07:35:25.825Z,33.34
2022-08-26T07:37:53.893Z,33.44
2022-08-26T07:38:54.374Z,33.51
2022-08-26T07:39:54.414Z,33.58
2022-08-26T07:40:57.295Z,33.59
2022-08-26T07:41:51.735Z,33.62
2022-08-26T07:42:51.543Z,33.57
2022-08-26T07:43:50.699Z,33.58
2022-08-26T07:44:55.684Z,33.69
2022-08-26T07:45:54.526Z,33.77
2022-08-26T07:46:53.302Z,33.82
2022-08-26T07:47:50.660Z,33.82
2022-08-26T07:48:51.454Z,33.89
2022-08-26T07:49:53.002Z,33.86
2022-08-26T07:50:50.907Z,33.93
2022-08-26T07:51:50.815Z,33.97
2022-08-26T07:52:53.083Z,34.03
2022-08-26T07:53:52.820Z,33.93
2022-08-26T07:54:50.839Z,33.92
2022-08-26T07:55:50.989Z,33.89
2022-08-26T07:56:59.940Z,34.00
2022-08-26T07:57:50.900Z,33.97
2022-08-26T07:58:51.451Z,34.07
2022-08-26T07:59:51.498Z,34.03
2022-08-26T08:00:53.136Z,34.10
2022-08-26T08:01:51.987Z,34.07
2022-08-26T08:02:52.721Z,34.14
2022-08-26T08:03:51.949Z,34.07
2022-08-26T08:04:50.990Z,34.09
2022-08-26T08:05:51.383Z,34.09
2022-08-26T08:06:54.891Z,34.24
2022-08-26T08:07:53.484Z,34.19
2022-08-26T08:08:54.829Z,34.24
2022-08-26T08:09:59.737Z,34.40
2022-08-26T08:10:51.124Z,34.47
2022-08-26T08:11:52.943Z,34.50
2022-08-26T08:12:51.070Z,34.50
2022-08-26T08:13:56.438Z,34.55
2022-08-26T08:14:54.236Z,34.64
2022-08-26T08:15:52.024Z,34.54
2022-08-26T08:16:54.444Z,34.62
2022-08-26T08:17:54.834Z,34.68
2022-08-26T08:18:51.298Z,34.64
2022-08-26T08:19:52.327Z,34.67
2022-08-26T08:21:04.819Z,34.69
2022-08-26T08:21:52.306Z,34.68
2022-08-26T08:22:51.257Z,34.67
2022-08-26T08:23:53.560Z,34.67
2022-08-26T08:24:53.123Z,34.61
2022-08-26T08:25:52.320Z,34.61
2022-08-26T08:26:54.515Z,34.61
2022-08-26T08:27:54.299Z,34.61
2022-08-26T08:28:53.656Z,34.64
2022-08-26T08:29:51.429Z,34.67
2022-08-26T08:30:51.582Z,34.69
2022-08-26T08:31:56.525Z,34.74
2022-08-26T08:32:51.419Z,34.72
2022-08-26T08:33:55.681Z,34.62
2022-08-26T08:34:51.637Z,34.68
2022-08-26T08:35:52.713Z,34.67
2022-08-26T08:36:53.264Z,34.61
2022-08-26T08:37:51.501Z,34.64
2022-08-26T08:38:52.762Z,34.54
2022-08-26T08:39:52.569Z,34.61
2022-08-26T08:40:54.837Z,34.65
2022-08-26T08:41:52.535Z,34.67
2022-08-26T08:43:58.141Z,34.74
2022-08-26T08:44:53.466Z,34.72
2022-08-26T08:45:51.717Z,34.75
2022-08-26T08:46:51.704Z,34.72
2022-08-26T08:47:51.772Z,34.69
2022-08-26T08:48:52.749Z,34.64
2022-08-26T08:49:56.505Z,34.78
2022-08-26T08:50:51.805Z,34.79
2022-08-26T08:51:53.833Z,34.84
2022-08-26T08:52:51.995Z,34.82
2022-08-26T08:53:54.857Z,34.94
2022-08-26T08:54:52.843Z,34.98
2022-08-26T08:55:53.833Z,35.01
2022-08-26T08:56:53.256Z,35.05
2022-08-26T08:57:54.502Z,35.12
2022-08-26T08:58:53.700Z,35.14
2022-08-26T08:59:54.238Z,35.17
2022-08-26T09:00:52.039Z,35.17
2022-08-26T09:01:54.339Z,35.08
2022-08-26T09:02:53.007Z,35.16
2022-08-26T09:03:54.998Z,35.19
2022-08-26T09:04:53.717Z,35.05
2022-08-26T09:05:53.241Z,34.92
2022-08-26T09:06:53.261Z,35.08
2022-08-26T09:07:52.964Z,35.16
2022-08-26T09:08:54.645Z,34.95
2022-08-26T09:09:52.236Z,34.99
2022-08-26T09:10:53.891Z,35.08
2022-08-26T09:11:54.653Z,35.19
2022-08-26T09:12:52.843Z,35.13
2022-08-26T09:13:53.282Z,35.14
2022-08-26T09:14:52.244Z,35.06
2022-08-26T09:15:52.433Z,34.94
2022-08-26T09:16:53.648Z,34.82
2022-08-26T09:17:52.335Z,34.92
2022-08-26T09:18:54.193Z,35.08
2022-08-26T09:19:53.232Z,35.23
2022-08-26T09:20:55.109Z,35.14
2022-08-26T09:21:53.604Z,35.10
2022-08-26T09:22:52.513Z,35.20
2022-08-26T09:23:56.817Z,35.23
2022-08-26T09:24:55.129Z,35.20
2022-08-26T09:26:56.163Z,35.17
2022-08-26T09:27:52.978Z,35.12
2022-08-26T09:28:52.919Z,35.33
2022-08-26T09:29:54.869Z,35.28
2022-08-26T09:30:53.427Z,35.34
2022-08-26T09:33:19.762Z,35.19
2022-08-26T09:34:19.160Z,35.20
2022-08-26T09:35:18.701Z,35.17
2022-08-26T09:36:24.759Z,35.14
2022-08-26T09:37:18.746Z,35.22
2022-08-26T09:38:20.349Z,35.30
2022-08-26T09:39:18.928Z,35.19
2022-08-26T09:40:18.974Z,35.22
2022-08-26T09:41:21.524Z,35.19
2022-08-26T09:42:18.866Z,35.29
2022-08-26T09:43:22.893Z,35.19
2022-08-26T09:44:19.011Z,35.13
2022-08-26T09:45:19.983Z,35.06
2022-08-26T09:46:19.876Z,35.01
2022-08-26T09:47:19.583Z,35.17
2022-08-26T09:48:19.706Z,35.16
2022-08-26T09:49:19.584Z,35.06
2022-08-26T09:50:18.940Z,35.08
2022-08-26T09:51:24.071Z,35.08
2022-08-26T09:52:21.599Z,35.10
2022-08-26T09:53:20.949Z,35.20
2022-08-26T09:54:20.592Z,35.20
2022-08-26T09:55:19.008Z,35.19
2022-08-26T09:56:19.718Z,35.17
2022-08-26T09:57:19.327Z,35.22
2022-08-26T09:58:20.798Z,35.33
2022-08-26T09:59:19.128Z,35.40
2022-08-26T10:00:19.145Z,35.44
2022-08-26T10:01:19.495Z,35.53
2022-08-26T10:13:25.707Z,32.52
2022-08-26T10:14:26.067Z,32.96
2022-08-26T10:15:26.317Z,33.27
2022-08-26T10:16:28.701Z,33.55
2022-08-26T10:17:24.767Z,33.79
2022-08-26T10:18:28.726Z,34.06
2022-08-26T10:19:24.777Z,34.28
2022-08-26T10:20:25.647Z,34.53
2022-08-26T10:21:26.496Z,34.62
2022-08-26T10:22:27.717Z,34.85
2022-08-26T10:23:26.678Z,35.06
2022-08-26T10:24:26.418Z,35.13
2022-08-26T10:25:28.702Z,35.23
2022-08-26T10:26:24.822Z,35.44
2022-08-26T10:27:24.845Z,35.54
2022-08-26T10:28:26.758Z,35.67
2022-08-26T10:30:53.738Z,35.85
2022-08-26T10:31:51.391Z,35.92
2022-08-26T10:32:52.286Z,35.98
2022-08-26T10:33:52.532Z,36.02
2022-08-26T10:34:50.936Z,36.22
2022-08-26T10:35:52.729Z,36.29
2022-08-26T10:37:13.761Z,36.32
2022-08-26T10:37:51.950Z,36.43
2022-08-26T10:38:51.940Z,36.36
2022-08-26T10:39:51.919Z,36.38
2022-08-26T10:40:51.045Z,36.38
2022-08-26T10:41:53.423Z,36.35
2022-08-26T10:42:53.319Z,36.36
2022-08-26T10:43:53.553Z,36.49
2022-08-26T10:44:52.042Z,36.56
2022-08-26T10:45:51.174Z,36.59
2022-08-26T10:46:51.474Z,36.65
2022-08-26T10:47:51.122Z,36.60
2022-08-26T10:48:52.420Z,36.73
2022-08-26T10:49:51.148Z,36.93
2022-08-26T10:50:51.193Z,36.91
2022-08-26T10:51:51.177Z,36.86
2022-08-26T10:52:51.201Z,36.98
2022-08-26T10:53:52.986Z,36.87
2022-08-26T10:54:51.268Z,36.93
2022-08-26T10:55:53.066Z,36.86
2022-08-26T10:56:51.371Z,36.84
2022-08-26T10:57:51.418Z,36.80
2022-08-26T10:58:51.386Z,36.84
2022-08-26T10:59:53.160Z,36.91
2022-08-26T11:00:51.552Z,36.90
2022-08-26T11:01:52.532Z,36.90
2022-08-26T11:02:53.969Z,36.91
2022-08-26T11:03:55.301Z,37.11
2022-08-26T11:04:53.637Z,37.46
2022-08-26T11:05:51.660Z,37.96
2022-08-26T11:06:52.543Z,38.18
2022-08-26T11:07:51.709Z,38.36
2022-08-26T11:08:52.934Z,38.44
2022-08-26T11:09:51.673Z,38.50
2022-08-26T11:10:51.715Z,38.32
2022-08-26T11:11:51.780Z,38.39
2022-08-26T11:12:53.874Z,38.69
2022-08-26T11:13:53.527Z,39.17
2022-08-26T11:14:59.420Z,39.58
2022-08-26T11:15:54.995Z,39.82
2022-08-26T11:16:56.452Z,40.15
2022-08-26T11:17:52.148Z,40.43
2022-08-26T11:18:53.843Z,40.71
2022-08-26T11:20:03.884Z,40.99
2022-08-26T11:20:51.982Z,40.91
2022-08-26T11:21:51.936Z,41.06
2022-08-26T11:22:52.687Z,41.31
2022-08-26T11:23:54.525Z,41.46
2022-08-26T11:24:55.818Z,41.54
2022-08-26T11:25:52.068Z,41.77
2022-08-26T11:26:56.150Z,41.87
2022-08-26T11:27:52.074Z,41.95
2022-08-26T11:28:52.575Z,41.98
2022-08-26T11:29:53.868Z,42.02
2022-08-26T11:30:57.886Z,42.00
2022-08-26T11:31:52.273Z,42.11
2022-08-26T11:32:52.231Z,42.15
2022-08-26T11:33:55.481Z,42.24
2022-08-26T11:34:52.260Z,42.51
2022-08-26T11:35:53.221Z,42.29
2022-08-26T11:36:52.339Z,42.62
2022-08-26T11:37:52.282Z,42.85
2022-08-26T11:38:54.002Z,43.12
2022-08-26T11:39:55.202Z,43.17
2022-08-26T11:40:52.315Z,43.39
2022-08-26T11:41:52.649Z,43.44
2022-08-26T11:42:52.376Z,43.56
2022-08-26T11:43:55.558Z,43.48
2022-08-26T11:44:52.443Z,43.39
2022-08-26T11:45:52.479Z,43.51
2022-08-26T11:46:52.482Z,43.46
2022-08-26T11:47:54.205Z,43.49
2022-08-26T11:48:52.506Z,43.52
2022-08-26T11:49:52.542Z,43.69
2022-08-26T11:50:54.246Z,43.93
2022-08-26T11:51:52.576Z,44.00
2022-08-26T11:52:52.591Z,44.30
2022-08-26T11:53:52.618Z,44.34
2022-08-26T11:54:54.338Z,44.30
2022-08-26T11:55:52.648Z,44.45
2022-08-26T11:56:52.690Z,44.53
2022-08-26T11:57:54.401Z,44.76
2022-08-26T11:58:52.659Z,44.83
2022-08-26T11:59:54.370Z,44.33
2022-08-26T12:00:54.599Z,43.52
2022-08-26T12:01:52.711Z,42.83
2022-08-26T12:02:52.789Z,42.29
2022-08-26T12:03:52.876Z,42.80
2022-08-26T12:04:54.452Z,43.17
2022-08-26T12:05:52.762Z,43.66
2022-08-26T12:06:54.526Z,43.80
2022-08-26T12:07:53.110Z,43.93
2022-08-26T12:08:52.809Z,44.01
2022-08-26T12:09:52.815Z,44.21
2022-08-26T12:10:54.531Z,44.14
2022-08-26T12:11:52.846Z,44.26
2022-08-26T12:12:54.565Z,44.38
2022-08-26T12:13:52.942Z,44.48
2022-08-26T12:14:52.865Z,44.69
2022-08-26T12:15:55.836Z,44.66
2022-08-26T12:16:52.980Z,44.50
2022-08-26T12:17:54.584Z,44.69
2022-08-26T12:18:52.900Z,44.82
2022-08-26T12:19:52.939Z,44.95
2022-08-26T12:20:54.658Z,44.81
2022-08-26T12:21:52.988Z,44.61
2022-08-26T12:22:54.719Z,44.34
2022-08-26T12:23:53.003Z,44.23
2022-08-26T12:24:53.030Z,44.06
2022-08-26T12:25:53.050Z,43.90
2022-08-26T12:26:54.791Z,43.84
2022-08-26T12:27:54.009Z,43.38
2022-08-26T12:28:53.179Z,43.14
2022-08-26T12:29:53.181Z,42.97
2022-08-26T12:30:53.212Z,43.05
2022-08-26T12:31:54.965Z,43.49
2022-08-26T12:32:57.890Z,43.75
2022-08-26T12:33:53.242Z,43.86
2022-08-26T12:34:53.295Z,44.00
2022-08-26T12:35:56.706Z,44.07
2022-08-26T12:36:55.029Z,43.86
2022-08-26T12:37:53.252Z,43.79
2022-08-26T12:38:58.082Z,43.87
2022-08-26T12:39:53.395Z,44.20
2022-08-26T12:40:55.070Z,44.51
2022-08-26T12:41:53.378Z,44.66
2022-08-26T12:42:53.426Z,44.61
2022-08-26T12:43:53.429Z,44.74
2022-08-26T12:44:54.629Z,44.95
2022-08-26T12:45:55.238Z,44.81
2022-08-26T12:46:53.487Z,44.81
2022-08-26T12:47:53.459Z,44.75
2022-08-26T12:48:55.176Z,44.44
2022-08-26T12:49:53.497Z,44.47
2022-08-26T12:50:55.208Z,44.54
2022-08-26T12:51:55.449Z,44.69
2022-08-26T12:52:53.548Z,44.79
2022-08-26T12:53:53.540Z,45.03
2022-08-26T12:54:56.720Z,45.30
2022-08-26T12:55:55.261Z,45.48
2022-08-26T12:56:55.526Z,45.46
2022-08-26T12:57:53.572Z,45.63
2022-08-26T12:59:53.635Z,45.99
2022-08-26T13:00:53.801Z,45.94
2022-08-26T13:01:55.536Z,45.05
2022-08-26T13:02:53.748Z,44.44
2022-08-26T13:03:55.439Z,44.17
2022-08-26T13:04:57.506Z,44.53
2022-08-26T13:05:53.774Z,44.83
2022-08-26T13:06:55.515Z,45.03
2022-08-26T13:07:53.776Z,45.08
2022-08-26T13:08:55.503Z,45.06
2022-08-26T13:09:53.835Z,44.68
2022-08-26T13:10:53.856Z,44.45
2022-08-26T13:11:53.876Z,44.68
2022-08-26T13:12:53.914Z,44.78
2022-08-26T13:13:55.627Z,45.09
2022-08-26T13:14:53.897Z,45.08
2022-08-26T13:15:55.664Z,45.16
2022-08-26T13:16:53.929Z,45.01
2022-08-26T13:17:53.957Z,45.17
2022-08-26T13:18:54.849Z,45.02
2022-08-26T13:19:58.030Z,44.89
2022-08-26T13:20:54.001Z,44.76
2022-08-26T13:21:57.160Z,44.48
2022-08-26T13:22:59.107Z,44.27
2022-08-26T13:23:54.049Z,44.08
2022-08-26T13:24:57.237Z,43.73
2022-08-26T13:25:54.075Z,43.27
2022-08-26T13:26:54.103Z,42.90
2022-08-26T13:27:54.082Z,42.63
2022-08-26T13:29:01.557Z,42.18
2022-08-26T13:29:57.314Z,41.88
2022-08-26T13:30:54.173Z,41.61
2022-08-26T13:31:54.167Z,41.35
2022-08-26T13:32:54.238Z,41.13
2022-08-26T13:33:54.257Z,40.94
2022-08-26T13:34:55.020Z,40.87
2022-08-26T13:35:56.246Z,40.78
2022-08-26T13:36:54.357Z,40.64
2022-08-26T13:37:54.336Z,40.43
2022-08-26T13:38:54.377Z,40.27
2022-08-26T13:39:56.182Z,40.13
2022-08-26T13:40:56.346Z,40.06
2022-08-26T13:41:54.498Z,39.99
2022-08-26T13:42:56.219Z,39.99
2022-08-26T13:43:54.539Z,39.84
2022-08-26T13:44:54.593Z,39.75
2022-08-26T13:45:54.579Z,39.72
2022-08-26T13:46:56.300Z,39.76
2022-08-26T13:47:54.590Z,39.67
2022-08-26T13:48:54.651Z,39.64
2022-08-26T13:49:54.622Z,39.68
2022-08-26T13:50:54.661Z,39.62
2022-08-26T13:51:56.394Z,39.65
2022-08-26T13:52:55.692Z,39.68
2022-08-26T13:53:54.733Z,39.58
2022-08-26T13:54:54.763Z,39.57
2022-08-26T13:55:56.484Z,39.61
2022-08-26T13:56:54.829Z,39.64
2022-08-26T13:57:54.819Z,39.47
2022-08-26T13:58:54.802Z,39.40
2022-08-26T13:59:54.814Z,39.37
2022-08-26T14:00:56.543Z,39.34
2022-08-26T14:01:54.837Z,39.34
2022-08-26T14:02:54.954Z,39.27
2022-08-26T14:03:54.921Z,39.21
2022-08-26T14:04:56.616Z,39.09
2022-08-26T14:05:54.944Z,39.03
2022-08-26T14:06:54.987Z,39.05
2022-08-26T14:07:55.035Z,39.07
2022-08-26T14:08:56.758Z,38.95
2022-08-26T14:09:55.077Z,38.97
2022-08-26T14:10:55.100Z,39.02
2022-08-26T14:11:55.424Z,39.00
2022-08-26T14:12:55.180Z,39.06
2022-08-26T14:13:56.919Z,39.06
2022-08-26T14:14:56.219Z,39.02
2022-08-26T14:15:55.321Z,39.02
2022-08-26T14:16:59.296Z,38.97
2022-08-26T14:17:55.311Z,38.92
2022-08-26T14:18:57.032Z,38.88
2022-08-26T14:19:55.381Z,38.88
2022-08-26T14:20:57.123Z,38.99
2022-08-26T14:21:55.403Z,38.90
2022-08-26T14:23:13.138Z,38.88
2022-08-26T14:24:00.313Z,38.92
2022-08-26T14:24:55.480Z,38.90
2022-08-26T14:25:57.194Z,38.82
2022-08-26T14:26:55.552Z,38.82
2022-08-26T14:27:55.545Z,38.70
2022-08-26T14:28:57.269Z,38.76
2022-08-26T14:29:55.622Z,38.72
2022-08-26T14:30:55.742Z,38.70
2022-08-26T14:31:55.695Z,38.59
2022-08-26T14:32:55.738Z,38.59
2022-08-26T14:33:57.458Z,38.55
2022-08-26T14:34:55.749Z,38.57
2022-08-26T14:35:55.709Z,38.54
2022-08-26T14:36:55.749Z,38.51
2022-08-26T14:37:57.466Z,38.52
2022-08-26T14:38:55.807Z,38.59
2022-08-26T14:39:55.875Z,38.59
2022-08-26T14:40:55.888Z,38.55
2022-08-26T14:41:55.913Z,38.50
2022-08-26T14:42:58.917Z,38.44
2022-08-26T14:43:57.862Z,38.45
2022-08-26T14:44:57.624Z,38.51
2022-08-26T14:45:55.970Z,38.51
2022-08-26T14:46:56.140Z,38.51
2022-08-26T14:47:56.060Z,38.57
2022-08-26T14:49:00.980Z,38.55
2022-08-26T14:49:58.013Z,38.65
2022-08-26T14:50:56.063Z,38.54
2022-08-26T14:51:56.106Z,38.47
2022-08-26T14:52:56.093Z,38.42
2022-08-26T14:53:56.136Z,38.39
2022-08-26T14:54:57.873Z,38.44
2022-08-26T14:55:57.055Z,38.45
2022-08-26T14:56:57.935Z,38.41
2022-08-26T14:57:57.121Z,38.38
2022-08-26T14:58:57.277Z,38.28
2022-08-26T14:59:57.187Z,38.24
2022-08-26T15:00:57.348Z,38.17
2022-08-26T15:01:58.290Z,38.11
2022-08-26T15:02:57.535Z,38.13
2022-08-26T15:03:57.312Z,38.08
2022-08-26T15:04:58.176Z,38.11
2022-08-26T15:05:57.379Z,38.08
2022-08-26T15:06:58.187Z,38.14
2022-08-26T15:07:57.441Z,38.15
2022-08-26T15:08:57.340Z,38.14
2022-08-26T15:09:57.501Z,38.03
2022-08-26T15:10:56.570Z,38.03
2022-08-26T15:11:59.723Z,38.02
2022-08-26T15:12:56.661Z,37.99
2022-08-26T15:13:56.701Z,37.93
2022-08-26T15:14:56.748Z,37.91
2022-08-26T15:15:56.854Z,37.88
2022-08-26T15:16:59.992Z,37.81
2022-08-26T15:17:56.825Z,37.81
2022-08-26T15:18:56.854Z,37.79
2022-08-26T15:19:56.866Z,37.83
2022-08-26T15:20:56.913Z,37.83
2022-08-26T15:22:00.081Z,37.79
2022-08-26T15:22:57.574Z,37.77
2022-08-26T15:23:56.942Z,37.69
2022-08-26T15:24:56.988Z,37.63
2022-08-26T15:26:00.136Z,37.62
2022-08-26T15:26:57.078Z,37.59
2022-08-26T15:27:57.059Z,37.58
2022-08-26T15:28:58.382Z,37.55
2022-08-26T15:29:57.119Z,37.52
2022-08-26T15:30:58.872Z,37.53
2022-08-26T15:31:57.624Z,37.51
2022-08-26T15:32:57.178Z,37.48
2022-08-26T15:33:58.879Z,37.48
2022-08-26T15:34:59.099Z,37.51
2022-08-26T15:35:57.237Z,37.45
2022-08-26T15:36:57.262Z,37.45
2022-08-26T15:37:59.158Z,37.43
2022-08-26T15:38:59.202Z,37.36
2022-08-26T15:39:57.445Z,37.38
2022-08-26T15:41:02.450Z,37.31
2022-08-26T15:41:57.381Z,37.28
2022-08-26T15:43:17.835Z,37.28
2022-08-26T15:43:57.441Z,37.29
2022-08-26T15:44:58.243Z,37.29
2022-08-26T15:45:59.193Z,37.26
2022-08-26T15:46:58.756Z,37.25
2022-08-26T15:48:01.365Z,37.18
2022-08-26T15:48:57.532Z,37.17
2022-08-26T15:49:57.616Z,37.13
2022-08-26T15:50:59.348Z,37.13
2022-08-26T15:51:57.575Z,37.10
2022-08-26T15:52:57.715Z,37.10
2022-08-26T15:53:59.361Z,37.08
2022-08-26T15:54:57.687Z,37.13
2022-08-26T15:55:59.367Z,37.11
2022-08-26T15:56:59.611Z,37.00
2022-08-26T15:57:57.687Z,37.07
2022-08-26T15:58:57.734Z,37.00
2022-08-26T15:59:57.770Z,37.00
2022-08-26T16:12:45.192Z,33.45
2022-08-26T16:13:43.621Z,33.86
2022-08-26T16:14:44.812Z,34.17
2022-08-26T16:15:43.692Z,34.40
2022-08-26T16:16:45.362Z,34.71
2022-08-26T16:17:43.613Z,34.89
2022-08-26T16:18:43.645Z,35.12
2022-08-26T16:19:45.352Z,35.29
2022-08-26T16:20:43.695Z,35.43
2022-08-26T16:21:43.683Z,35.61
2022-08-26T16:22:43.700Z,35.71
2022-08-26T16:23:45.577Z,35.84
2022-08-26T16:24:44.746Z,35.95
2022-08-26T16:25:45.483Z,36.01
2022-08-26T16:26:45.686Z,36.05
2022-08-26T16:27:43.849Z,36.13
2022-08-26T16:28:43.906Z,36.15
2022-08-26T16:29:43.891Z,36.12
2022-08-26T16:30:45.638Z,36.18
2022-08-26T16:31:43.932Z,36.18
2022-08-26T16:32:43.970Z,36.12
2022-08-26T16:33:44.020Z,36.12
2022-08-26T16:34:46.991Z,36.13
2022-08-26T16:35:45.749Z,36.18
2022-08-26T16:36:45.939Z,36.16
2022-08-26T16:37:45.660Z,36.15
2022-08-26T16:38:44.120Z,36.16
2022-08-26T16:39:44.993Z,36.16
2022-08-26T16:40:45.932Z,36.18
2022-08-26T16:41:44.219Z,36.13
2022-08-26T16:42:45.931Z,36.09
2022-08-26T16:43:44.254Z,36.12
2022-08-26T16:44:44.305Z,36.19
2022-08-26T16:45:45.213Z,36.15
2022-08-26T16:46:46.141Z,36.11
2022-08-26T16:47:46.285Z,36.09
2022-08-26T16:48:44.384Z,36.11
2022-08-26T16:49:46.115Z,36.09
2022-08-26T16:50:44.414Z,36.11
2022-08-26T16:51:46.158Z,36.12
2022-08-26T16:52:46.383Z,36.12
2022-08-26T16:53:44.494Z,36.02
2022-08-26T16:54:46.196Z,36.02
2022-08-26T16:55:44.486Z,35.96
2022-08-26T16:56:46.208Z,35.95
2022-08-26T16:57:46.458Z,35.96
2022-08-26T16:58:46.188Z,35.96
2022-08-26T16:59:46.428Z,35.94
2022-08-26T17:00:46.158Z,35.87
2022-08-26T17:01:46.448Z,35.87
2022-08-26T17:02:44.759Z,35.87
2022-08-26T17:03:46.412Z,35.88
2022-08-26T17:04:46.231Z,35.84
2022-08-26T17:05:44.711Z,35.83
2022-08-26T17:06:44.760Z,35.77
2022-08-26T17:07:44.812Z,35.83
2022-08-26T17:08:46.557Z,35.76
2022-08-26T17:09:44.839Z,35.77
2022-08-26T17:10:44.894Z,35.76
2022-08-26T17:11:44.884Z,35.78
2022-08-26T17:12:46.606Z,35.78
2022-08-26T17:13:46.843Z,35.76
2022-08-26T17:14:46.544Z,35.77
2022-08-26T17:15:46.837Z,35.71
2022-08-26T17:16:46.513Z,35.76
2022-08-26T17:17:46.733Z,35.76
2022-08-26T17:18:46.970Z,35.73
2022-08-26T17:19:47.172Z,35.73
2022-08-26T17:20:46.920Z,35.73
2022-08-26T17:21:45.656Z,35.77
2022-08-26T17:22:46.885Z,35.77
2022-08-26T17:23:45.928Z,35.73
2022-08-26T17:24:45.826Z,35.74
2022-08-26T17:25:46.807Z,35.74
2022-08-26T17:26:48.418Z,35.71
2022-08-26T17:27:46.797Z,35.73
2022-08-26T17:28:45.948Z,35.73
2022-08-26T17:29:46.118Z,35.70
2022-08-26T17:30:46.971Z,35.70
2022-08-26T17:31:47.156Z,35.71
2022-08-26T17:32:46.889Z,35.68
2022-08-26T17:33:50.363Z,35.65
2022-08-26T17:34:46.140Z,35.63
2022-08-26T17:35:45.226Z,35.63
2022-08-26T17:36:46.960Z,35.61
2022-08-26T17:37:45.317Z,35.61
2022-08-26T17:38:47.039Z,35.57
2022-08-26T17:39:47.272Z,35.56
2022-08-26T17:40:45.424Z,35.60
2022-08-26T17:41:47.172Z,35.61
2022-08-26T17:42:45.483Z,35.60
2022-08-26T17:43:45.513Z,35.53
2022-08-26T17:44:46.551Z,35.56
2022-08-26T17:45:45.567Z,35.51
2022-08-26T17:46:47.333Z,35.56
2022-08-26T17:47:45.644Z,35.56
2022-08-26T17:48:45.682Z,35.51
2022-08-26T17:49:45.684Z,35.50
2022-08-26T17:50:49.459Z,35.49
2022-08-26T17:51:47.389Z,35.44
2022-08-26T17:52:45.675Z,35.41
2022-08-26T17:53:45.716Z,35.37
2022-08-26T17:54:45.697Z,35.41
2022-08-26T17:55:45.739Z,35.37
2022-08-26T17:56:47.465Z,35.33
2022-08-26T17:57:53.515Z,35.34
2022-08-26T17:58:48.153Z,35.37
2022-08-26T17:59:47.469Z,35.34
2022-08-26T18:00:45.757Z,35.33
2022-08-26T18:01:45.862Z,35.36
2022-08-26T18:02:45.845Z,35.34
2022-08-26T18:03:47.628Z,35.30
2022-08-26T18:04:45.870Z,35.30
2022-08-26T18:05:45.900Z,35.37
2022-08-26T18:06:47.621Z,35.36
2022-08-26T18:07:45.931Z,35.32
2022-08-26T18:08:45.964Z,35.32
2022-08-26T18:09:46.002Z,35.28
2022-08-26T18:10:46.033Z,35.26
2022-08-26T18:11:47.744Z,35.28
2022-08-26T18:12:47.463Z,35.28
2022-08-26T18:13:47.426Z,35.23
2022-08-26T18:14:47.794Z,35.19
2022-08-26T18:15:46.217Z,35.19
2022-08-26T18:16:46.174Z,35.19
2022-08-26T18:17:46.194Z,35.14
2022-08-26T18:18:46.213Z,35.12
2022-08-26T18:19:47.937Z,35.13
2022-08-26T18:20:46.311Z,35.12
2022-08-26T18:21:46.258Z,35.10
2022-08-26T18:22:47.976Z,35.06
2022-08-26T18:23:46.287Z,35.06
2022-08-26T18:24:58.266Z,35.01
2022-08-26T18:25:48.057Z,34.99
2022-08-26T18:26:46.319Z,35.03
2022-08-26T18:27:48.028Z,35.08
2022-08-26T18:28:46.367Z,35.09
2022-08-26T18:29:46.389Z,35.06
2022-08-26T18:30:46.437Z,35.03
2022-08-26T18:31:46.432Z,35.01
2022-08-26T18:32:47.671Z,34.95
2022-08-26T18:33:46.494Z,35.02
2022-08-26T18:34:48.201Z,34.98
2022-08-26T18:35:46.512Z,34.95
2022-08-26T18:36:46.532Z,34.96
2022-08-26T18:37:46.555Z,35.02
2022-08-26T18:38:46.648Z,34.96
2022-08-26T18:39:48.448Z,34.94
2022-08-26T18:40:46.616Z,34.91
2022-08-26T18:41:46.653Z,34.94
2022-08-26T18:42:47.021Z,34.95
2022-08-26T18:43:46.715Z,34.92
2022-08-26T18:44:48.474Z,34.88
2022-08-26T18:45:48.682Z,34.82
2022-08-26T18:46:48.394Z,34.82
2022-08-26T18:47:48.624Z,34.84
2022-08-26T18:48:51.208Z,34.78
2022-08-26T18:49:48.075Z,34.79
2022-08-26T18:50:50.130Z,34.79
2022-08-26T18:51:46.940Z,34.82
2022-08-26T18:52:46.969Z,34.78
2022-08-26T18:53:48.187Z,34.77
2022-08-26T18:54:48.017Z,34.72
2022-08-26T18:55:47.748Z,34.68
2022-08-26T18:56:47.018Z,34.72
2022-08-26T18:57:47.029Z,34.72
2022-08-26T18:58:47.062Z,34.68
2022-08-26T18:59:47.099Z,34.68
2022-08-26T19:00:48.830Z,34.68
2022-08-26T19:01:47.245Z,34.62
2022-08-26T19:02:48.200Z,34.61
2022-08-26T19:03:47.261Z,34.61
2022-08-26T19:04:49.002Z,34.64
2022-08-26T19:05:47.342Z,34.62
2022-08-26T19:06:49.072Z,34.64
2022-08-26T19:07:48.049Z,34.62
2022-08-26T19:08:49.758Z,34.57
2022-08-26T19:09:47.411Z,34.61
2022-08-26T19:10:47.455Z,34.61
2022-08-26T19:11:47.506Z,34.62
2022-08-26T19:12:47.475Z,34.65
2022-08-26T19:13:49.195Z,34.64
2022-08-26T19:14:47.541Z,34.62
2022-08-26T19:15:49.265Z,34.57
2022-08-26T19:16:47.595Z,34.54
2022-08-26T19:17:48.548Z,34.59
2022-08-26T19:18:48.456Z,34.53
2022-08-26T19:19:48.616Z,34.51
2022-08-26T19:20:49.357Z,34.54
2022-08-26T19:21:48.423Z,34.53
2022-08-26T19:22:48.579Z,34.51
2022-08-26T19:23:47.679Z,34.50
2022-08-26T19:24:49.408Z,34.47
2022-08-26T19:25:48.547Z,34.48
2022-08-26T19:26:48.708Z,34.44
2022-08-26T19:27:48.610Z,34.44
2022-08-26T19:28:48.769Z,34.46
2022-08-26T19:29:49.529Z,34.41
2022-08-26T19:30:51.322Z,34.40
2022-08-26T19:31:48.742Z,34.41
2022-08-26T19:32:47.922Z,34.38
2022-08-26T19:33:49.633Z,34.36
2022-08-26T19:34:49.855Z,34.34
2022-08-26T19:35:49.560Z,34.31
2022-08-26T19:36:47.894Z,34.37
2022-08-26T19:37:47.941Z,34.37
2022-08-26T19:38:47.997Z,34.34
2022-08-26T19:39:48.003Z,34.30
2022-08-26T19:40:49.735Z,34.33
2022-08-26T19:41:48.068Z,34.27
2022-08-26T19:42:48.105Z,34.26
2022-08-26T19:43:48.133Z,34.27
2022-08-26T19:44:48.187Z,34.23
2022-08-26T19:45:49.943Z,34.26
2022-08-26T19:46:48.257Z,34.24
2022-08-26T19:47:49.976Z,34.23
2022-08-26T19:48:52.867Z,34.28
2022-08-26T19:49:48.303Z,34.24
2022-08-26T19:50:50.027Z,34.21
2022-08-26T19:51:48.377Z,34.17
2022-08-26T19:52:48.419Z,34.19
2022-08-26T19:53:49.448Z,34.16
2022-08-26T19:54:48.471Z,34.14
2022-08-26T19:55:50.169Z,34.16
2022-08-26T19:56:50.411Z,34.12
2022-08-26T19:57:48.440Z,34.14
2022-08-26T19:58:48.478Z,34.14
2022-08-26T19:59:50.202Z,34.12
2022-08-26T20:00:48.542Z,34.12
2022-08-26T20:02:01.341Z,34.12
2022-08-26T20:02:48.639Z,34.13
2022-08-26T20:03:48.696Z,34.10
2022-08-26T20:04:48.678Z,34.09
2022-08-26T20:05:48.710Z,34.14
2022-08-26T20:06:55.750Z,34.10
2022-08-26T20:07:48.791Z,34.04
2022-08-26T20:08:50.680Z,34.06
2022-08-26T20:09:50.512Z,34.10
2022-08-26T20:10:48.885Z,34.07
2022-08-26T20:11:48.874Z,34.03
2022-08-26T20:12:48.911Z,34.04
2022-08-26T20:13:48.952Z,34.02
2022-08-26T20:14:50.183Z,34.03
2022-08-26T20:15:50.905Z,34.02
2022-08-26T20:16:49.096Z,34.02
2022-08-26T20:17:49.312Z,34.02
2022-08-26T20:18:49.076Z,34.00
2022-08-26T20:19:49.070Z,33.99
2022-08-26T20:20:50.797Z,33.99
2022-08-26T20:21:49.137Z,34.02
2022-08-26T20:22:49.167Z,33.99
2022-08-26T20:23:50.199Z,33.96
2022-08-26T20:24:50.227Z,33.96
2022-08-26T20:25:50.947Z,33.95
2022-08-26T20:26:49.288Z,33.92
2022-08-26T20:27:51.019Z,33.96
2022-08-26T20:28:50.999Z,33.96
2022-08-26T20:29:49.328Z,33.95
2022-08-26T20:30:51.050Z,33.93
2022-08-26T20:31:51.327Z,33.89
2022-08-26T20:32:49.751Z,33.93